Time;durP1;ratioP1;P1;durP2;ratioP2;P2;SDS_P1;SDS_P2;PMS_P1;PMS_P2;Temp;Humidity;BMP_temperature;BMP_pressure;BME280_temperature;BME280_humidity;BME280_pressure;Samples;Min_cycle;Max_cycle;Signal;HPM_P1;HPM_P2
2023/03/31 00:02:14;;;;;;;2.25;2.05;;;;;;;;;;5071371;28;20115;-66
2023/03/31 00:04:44;;;;;;;2.72;2.10;;;;;;;;;;5074323;28;20040;-68
2023/03/31 00:07:12;;;;;;;3.33;2.25;;;;;;;;;;5083193;28;20043;-70
2023/03/31 00:09:39;;;;;;;4.03;2.00;;;;;;;;;;5071590;28;20037;-69
2023/03/31 00:12:05;;;;;;;2.42;2.20;;;;;;;;;;5070511;28;20039;-66
2023/03/31 00:14:30;;;;;;;3.00;2.20;;;;;;;;;;5071998;28;20103;-66
2023/03/31 00:16:57;;;;;;;2.20;2.00;;;;;;;;;;5071630;28;20021;-69
2023/03/31 00:19:23;;;;;;;2.72;2.20;;;;;;;;;;5072448;28;20024;-68
2023/03/31 00:21:50;;;;;;;2.17;2.00;;;;;;;;;;5071427;28;20020;-64
2023/03/31 00:24:16;;;;;;;2.15;1.95;;;;;;;;;;5072393;28;20112;-67
2023/03/31 00:26:43;;;;;;;2.17;2.00;;;;;;;;;;5072336;28;20021;-67
2023/03/31 00:29:11;;;;;;;2.85;2.20;;;;;;;;;;5072225;28;20020;-63
2023/03/31 00:31:38;;;;;;;2.30;2.10;;;;;;;;;;5071452;28;20388;-64
2023/03/31 00:34:05;;;;;;;2.65;1.95;;;;;;;;;;5072251;28;20021;-64
2023/03/31 00:36:35;;;;;;;3.30;2.10;;;;;;;;;;5070573;28;20028;-69
2023/03/31 00:39:05;;;;;;;2.85;1.90;;;;;;;;;;5071023;28;20062;-66
2023/03/31 00:41:31;;;;;;;2.45;2.10;;;;;;;;;;5072772;28;20672;-64
2023/03/31 00:44:07;;;;;;;2.30;2.03;;;;;;;;;;5070236;28;20021;-67
2023/03/31 00:46:51;;;;;;;2.13;2.00;;;;;;;;;;5072844;28;20029;-67
2023/03/31 00:49:31;;;;;;;2.67;2.10;;;;;;;;;;5071983;28;20048;-67
2023/03/31 00:52:12;;;;;;;2.20;1.95;;;;;;;;;;5072334;28;20050;-65
2023/03/31 00:54:39;;;;;;;2.45;2.10;;;;;;;;;;5072592;28;20107;-70
2023/03/31 00:57:06;;;;;;;2.65;2.10;;;;;;;;;;5072836;28;20056;-63
2023/03/31 00:59:39;;;;;;;1.98;1.77;;;;;;;;;;5072878;28;20028;-64
2023/03/31 01:02:05;;;;;;;2.70;2.00;;;;;;;;;;5073038;28;20115;-64
2023/03/31 01:04:36;;;;;;;2.95;2.00;;;;;;;;;;5072027;28;20524;-64
2023/03/31 01:07:15;;;;;;;3.42;1.90;;;;;;;;;;5072768;28;20522;-64
2023/03/31 01:09:46;;;;;;;2.85;2.08;;;;;;;;;;5072770;28;20476;-65
2023/03/31 01:12:14;;;;;;;2.33;2.08;;;;;;;;;;5072390;28;20044;-63
2023/03/31 01:14:40;;;;;;;1.90;1.80;;;;;;;;;;5072531;28;20020;-64
2023/03/31 01:17:08;;;;;;;2.22;1.98;;;;;;;;;;5072656;28;20069;-69
2023/03/31 01:19:44;;;;;;;2.20;2.00;;;;;;;;;;5072505;28;20021;-66
2023/03/31 01:22:36;;;;;;;1.90;1.80;;;;;;;;;;5072502;28;20040;-65
2023/03/31 01:25:23;;;;;;;2.47;1.80;;;;;;;;;;5072804;28;20024;-66
2023/03/31 01:28:18;;;;;;;2.33;1.90;;;;;;;;;;5072726;28;20028;-66
2023/03/31 01:31:19;;;;;;;2.17;1.70;;;;;;;;;;5072440;28;20025;-65
2023/03/31 01:33:50;;;;;;;1.92;1.73;;;;;;;;;;5027777;28;20040;-65
2023/03/31 01:36:29;;;;;;;2.13;1.92;;;;;;;;;;5072602;28;20411;-69
2023/03/31 01:39:13;;;;;;;1.80;1.70;;;;;;;;;;5072388;28;20035;-68
2023/03/31 01:42:07;;;;;;;2.00;1.80;;;;;;;;;;5072320;28;20028;-63
2023/03/31 01:44:45;;;;;;;2.17;1.98;;;;;;;;;;5072378;28;20499;-67
2023/03/31 01:47:24;;;;;;;2.33;2.10;;;;;;;;;;5072356;28;20387;-65
2023/03/31 01:50:17;;;;;;;2.17;1.98;;;;;;;;;;5072263;28;20044;-64
2023/03/31 01:52:55;;;;;;;2.80;1.92;;;;;;;;;;5072233;28;20103;-69
2023/03/31 01:55:25;;;;;;;3.47;2.03;;;;;;;;;;5072358;28;20028;-65
2023/03/31 01:58:02;;;;;;;2.65;2.10;;;;;;;;;;5072450;28;20024;-66
2023/03/31 02:00:32;;;;;;;2.15;1.83;;;;;;;;;;5072223;28;20036;-70
2023/03/31 02:03:28;;;;;;;2.30;2.03;;;;;;;;;;5072353;28;20170;-69
2023/03/31 02:06:01;;;;;;;3.38;2.08;;;;;;;;;;5070699;28;20039;-64
2023/03/31 02:08:37;;;;;;;1.85;1.75;;;;;;;;;;5072190;28;20074;-68
2023/03/31 02:11:03;;;;;;;2.75;1.73;;;;;;;;;;5072007;28;20059;-67
2023/03/31 02:13:30;;;;;;;2.03;1.83;;;;;;;;;;5072095;28;20055;-64
2023/03/31 02:16:01;;;;;;;2.85;2.05;;;;;;;;;;5072012;28;20468;-69
2023/03/31 02:18:31;;;;;;;2.67;1.90;;;;;;;;;;5072278;28;20047;-66
2023/03/31 02:20:59;;;;;;;1.73;1.63;;;;;;;;;;5071921;28;20115;-65
2023/03/31 02:23:31;;;;;;;2.30;1.95;;;;;;;;;;5072212;28;20361;-66
2023/03/31 02:26:23;;;;;;;2.85;1.85;;;;;;;;;;5075774;28;20040;-65
2023/03/31 02:28:52;;;;;;;2.13;1.92;;;;;;;;;;5061300;28;20041;-65
2023/03/31 02:31:41;;;;;;;2.20;2.00;;;;;;;;;;5075977;28;20459;-64
2023/03/31 02:34:07;;;;;;;2.17;1.90;;;;;;;;;;5075717;28;20033;-65
2023/03/31 02:36:34;;;;;;;2.35;2.10;;;;;;;;;;5075512;28;20040;-67
2023/03/31 02:39:08;;;;;;;2.33;2.13;;;;;;;;;;5075434;28;20028;-63
2023/03/31 02:41:34;;;;;;;2.72;2.10;;;;;;;;;;5075701;28;20016;-64
2023/03/31 02:44:00;;;;;;;2.72;2.20;;;;;;;;;;5075359;28;20032;-69
2023/03/31 02:46:27;;;;;;;1.70;1.60;;;;;;;;;;5075403;28;20032;-66
2023/03/31 02:48:56;;;;;;;2.42;1.70;;;;;;;;;;5075120;28;20048;-69
2023/03/31 02:51:27;;;;;;;1.80;1.70;;;;;;;;;;5075537;28;20368;-69
2023/03/31 02:54:19;;;;;;;2.38;1.67;;;;;;;;;;5075516;28;20077;-66
2023/03/31 02:56:53;;;;;;;2.05;1.85;;;;;;;;;;5075151;28;20110;-69
2023/03/31 02:59:30;;;;;;;2.10;1.90;;;;;;;;;;5075138;28;20025;-65
2023/03/31 03:02:03;;;;;;;1.70;1.60;;;;;;;;;;5075111;28;20403;-68
2023/03/31 03:04:48;;;;;;;2.00;1.90;;;;;;;;;;5075026;28;20021;-64
2023/03/31 03:07:28;;;;;;;2.20;1.80;;;;;;;;;;5075054;28;20028;-67
2023/03/31 03:10:03;;;;;;;2.88;2.10;;;;;;;;;;5075331;28;20028;-65
2023/03/31 03:12:37;;;;;;;2.05;1.77;;;;;;;;;;5074976;28;20388;-69
2023/03/31 03:15:22;;;;;;;2.75;2.08;;;;;;;;;;5074980;28;20074;-67
2023/03/31 03:17:49;;;;;;;2.97;1.70;;;;;;;;;;5074975;28;20534;-64
2023/03/31 03:20:17;;;;;;;3.03;1.80;;;;;;;;;;5074809;28;20113;-70
2023/03/31 03:22:43;;;;;;;2.08;1.88;;;;;;;;;;5074686;28;20175;-67
2023/03/31 03:25:12;;;;;;;1.88;1.70;;;;;;;;;;5074959;28;20118;-66
2023/03/31 03:27:38;;;;;;;2.25;1.95;;;;;;;;;;5074978;28;20050;-65
2023/03/31 03:30:06;;;;;;;2.08;1.80;;;;;;;;;;5074611;28;20100;-65
2023/03/31 03:32:32;;;;;;;2.22;1.90;;;;;;;;;;5074603;28;20166;-65
2023/03/31 03:35:02;;;;;;;2.45;2.00;;;;;;;;;;5074285;28;20523;-66
2023/03/31 03:37:28;;;;;;;2.13;1.92;;;;;;;;;;5074798;28;20111;-65
2023/03/31 03:39:54;;;;;;;2.13;1.90;;;;;;;;;;5074389;28;20468;-65
2023/03/31 03:42:19;;;;;;;1.55;1.45;;;;;;;;;;5074308;28;20064;-69
2023/03/31 03:44:45;;;;;;;2.47;1.98;;;;;;;;;;5074317;28;20032;-65
2023/03/31 03:47:11;;;;;;;2.15;1.85;;;;;;;;;;5074651;28;20102;-67
2023/03/31 03:49:36;;;;;;;1.98;1.70;;;;;;;;;;5074091;28;20513;-67
2023/03/31 03:52:02;;;;;;;1.58;1.48;;;;;;;;;;5074230;28;20032;-65
2023/03/31 03:54:28;;;;;;;1.92;1.80;;;;;;;;;;5074118;28;20048;-67
2023/03/31 03:56:53;;;;;;;2.00;1.63;;;;;;;;;;5074115;28;20065;-64
2023/03/31 03:59:19;;;;;;;4.07;2.03;;;;;;;;;;5073964;28;20032;-67
2023/03/31 04:01:45;;;;;;;2.03;1.80;;;;;;;;;;5072649;28;20077;-67
2023/03/31 04:04:10;;;;;;;2.00;1.90;;;;;;;;;;5074177;28;20510;-64
2023/03/31 04:06:36;;;;;;;2.20;2.00;;;;;;;;;;5073941;28;20349;-66
2023/03/31 04:09:02;;;;;;;2.38;1.90;;;;;;;;;;5073635;28;20021;-68
2023/03/31 04:11:28;;;;;;;1.95;1.80;;;;;;;;;;5072477;28;20054;-66
2023/03/31 04:13:54;;;;;;;1.95;1.73;;;;;;;;;;5073725;28;20024;-65
2023/03/31 04:16:19;;;;;;;1.92;1.63;;;;;;;;;;5073896;28;20024;-63
2023/03/31 04:18:45;;;;;;;2.38;1.90;;;;;;;;;;5073535;28;20483;-67
2023/03/31 04:21:14;;;;;;;1.75;1.65;;;;;;;;;;5073680;28;20021;-65
2023/03/31 04:23:46;;;;;;;1.70;1.60;;;;;;;;;;5073481;28;20039;-66
2023/03/31 04:26:16;;;;;;;2.20;2.00;;;;;;;;;;5073470;28;20025;-66
2023/03/31 04:28:45;;;;;;;1.98;1.75;;;;;;;;;;5073356;28;20032;-64
2023/03/31 04:31:23;;;;;;;2.10;1.90;;;;;;;;;;5073246;28;20494;-68
2023/03/31 04:33:53;;;;;;;2.42;1.88;;;;;;;;;;5073304;28;20025;-70
2023/03/31 04:36:20;;;;;;;2.15;1.95;;;;;;;;;;5073231;28;20020;-65
2023/03/31 04:38:53;;;;;;;2.97;1.80;;;;;;;;;;5073100;28;20036;-66
2023/03/31 04:41:20;;;;;;;2.00;1.70;;;;;;;;;;5073127;28;20024;-66
2023/03/31 04:43:46;;;;;;;1.90;1.80;;;;;;;;;;5073160;28;20480;-68
2023/03/31 04:46:11;;;;;;;2.00;1.73;;;;;;;;;;5072689;28;20021;-65
2023/03/31 04:48:37;;;;;;;2.90;1.60;;;;;;;;;;5072981;28;20024;-67
2023/03/31 04:51:03;;;;;;;2.35;1.70;;;;;;;;;;5072985;28;20479;-64
2023/03/31 04:53:29;;;;;;;1.95;1.80;;;;;;;;;;5073043;28;20029;-64
2023/03/31 04:55:55;;;;;;;2.05;1.80;;;;;;;;;;5072800;28;20028;-64
2023/03/31 04:58:20;;;;;;;1.70;1.60;;;;;;;;;;5073095;28;20035;-64
2023/03/31 05:00:46;;;;;;;1.83;1.63;;;;;;;;;;5072858;28;20426;-64
2023/03/31 05:03:11;;;;;;;1.70;1.60;;;;;;;;;;5072707;28;20076;-70
2023/03/31 05:05:37;;;;;;;1.80;1.52;;;;;;;;;;5072889;28;20464;-70
2023/03/31 05:08:03;;;;;;;2.05;1.83;;;;;;;;;;5072681;28;20365;-63
2023/03/31 05:10:30;;;;;;;2.22;1.85;;;;;;;;;;5072885;28;20035;-65
2023/03/31 05:12:56;;;;;;;1.70;1.60;;;;;;;;;;5072720;28;20028;-65
2023/03/31 05:15:23;;;;;;;1.80;1.70;;;;;;;;;;5072715;28;20464;-69
2023/03/31 05:17:51;;;;;;;1.88;1.77;;;;;;;;;;5073022;28;20043;-64
2023/03/31 05:20:18;;;;;;;2.20;1.83;;;;;;;;;;5072968;28;20028;-62
2023/03/31 05:22:46;;;;;;;1.95;1.75;;;;;;;;;;5072625;28;20029;-63
2023/03/31 05:25:17;;;;;;;1.80;1.70;;;;;;;;;;5072390;28;20487;-64
2023/03/31 05:27:46;;;;;;;2.85;1.70;;;;;;;;;;5062897;28;20029;-65
2023/03/31 05:30:12;;;;;;;3.10;1.73;;;;;;;;;;5069219;28;20384;-65
2023/03/31 05:32:38;;;;;;;1.92;1.60;;;;;;;;;;5072367;28;20029;-66
2023/03/31 05:35:04;;;;;;;1.90;1.70;;;;;;;;;;5072462;28;20047;-65
2023/03/31 05:37:30;;;;;;;2.58;1.52;;;;;;;;;;5072425;28;20051;-65
2023/03/31 05:39:56;;;;;;;1.60;1.50;;;;;;;;;;5072312;28;20500;-65
2023/03/31 05:42:22;;;;;;;2.85;1.80;;;;;;;;;;5071602;28;20117;-65
2023/03/31 05:44:47;;;;;;;3.20;2.00;;;;;;;;;;5070350;28;20492;-68
2023/03/31 05:47:13;;;;;;;1.67;1.58;;;;;;;;;;5072398;28;20091;-64
2023/03/31 05:49:39;;;;;;;2.83;1.73;;;;;;;;;;5071862;28;20067;-66
2023/03/31 05:52:06;;;;;;;2.10;1.90;;;;;;;;;;5072122;28;20043;-66
2023/03/31 05:54:32;;;;;;;3.30;1.90;;;;;;;;;;5072012;28;20100;-65
2023/03/31 05:56:57;;;;;;;2.22;1.85;;;;;;;;;;5072163;28;20107;-68
2023/03/31 05:59:23;;;;;;;1.70;1.60;;;;;;;;;;5073836;28;20029;-65
2023/03/31 06:01:49;;;;;;;1.70;1.60;;;;;;;;;;5076173;28;20028;-65
2023/03/31 06:04:14;;;;;;;2.42;1.70;;;;;;;;;;5076491;28;20048;-65
2023/03/31 06:06:43;;;;;;;1.70;1.60;;;;;;;;;;5074992;28;20415;-68
2023/03/31 06:09:11;;;;;;;2.00;1.90;;;;;;;;;;5076258;28;20028;-64
2023/03/31 06:11:37;;;;;;;1.83;1.70;;;;;;;;;;5076383;28;20345;-64
2023/03/31 06:14:04;;;;;;;1.85;1.70;;;;;;;;;;5076075;28;20021;-68
2023/03/31 06:16:29;;;;;;;1.88;1.77;;;;;;;;;;5075927;28;20066;-64
2023/03/31 06:18:55;;;;;;;2.15;1.73;;;;;;;;;;5075875;28;20063;-67
2023/03/31 06:21:21;;;;;;;2.17;1.90;;;;;;;;;;5075893;28;20071;-66
2023/03/31 06:23:47;;;;;;;2.55;1.80;;;;;;;;;;5075758;28;20070;-65
2023/03/31 06:26:15;;;;;;;2.85;1.90;;;;;;;;;;5075228;28;20025;-68
2023/03/31 06:28:42;;;;;;;1.95;1.75;;;;;;;;;;5075284;28;20031;-65
2023/03/31 06:31:13;;;;;;;1.75;1.65;;;;;;;;;;5075761;28;20028;-66
2023/03/31 06:33:40;;;;;;;1.65;1.55;;;;;;;;;;5075536;28;20464;-66
2023/03/31 06:36:07;;;;;;;1.80;1.70;;;;;;;;;;5074210;28;20124;-64
2023/03/31 06:38:35;;;;;;;1.73;1.63;;;;;;;;;;5075496;28;20059;-64
2023/03/31 06:41:01;;;;;;;2.10;1.70;;;;;;;;;;5075349;28;20029;-65
2023/03/31 06:43:27;;;;;;;1.77;1.63;;;;;;;;;;5075503;28;20021;-68
2023/03/31 06:45:54;;;;;;;1.98;1.88;;;;;;;;;;5074269;28;20024;-67
2023/03/31 06:48:24;;;;;;;2.25;1.88;;;;;;;;;;5075340;28;20282;-66
2023/03/31 06:50:50;;;;;;;2.10;1.90;;;;;;;;;;5054644;28;20427;-63
2023/03/31 06:53:16;;;;;;;1.80;1.63;;;;;;;;;;5050611;28;20123;-65
2023/03/31 06:55:41;;;;;;;2.10;1.90;;;;;;;;;;5049521;28;20528;-65
2023/03/31 06:58:07;;;;;;;1.92;1.80;;;;;;;;;;5049921;28;20021;-64
2023/03/31 07:00:32;;;;;;;1.90;1.80;;;;;;;;;;5050388;28;20017;-65
2023/03/31 07:02:58;;;;;;;1.90;1.80;;;;;;;;;;5048772;28;20025;-63
2023/03/31 07:05:27;;;;;;;1.65;1.55;;;;;;;;;;5052340;28;20028;-68
2023/03/31 07:07:58;;;;;;;2.85;1.85;;;;;;;;;;5059235;28;20032;-63
2023/03/31 07:10:26;;;;;;;2.30;1.92;;;;;;;;;;5051822;28;20552;-64
2023/03/31 07:12:52;;;;;;;3.90;1.83;;;;;;;;;;5053798;28;20094;-63
2023/03/31 07:15:18;;;;;;;3.42;1.88;;;;;;;;;;5052967;28;20112;-64
2023/03/31 07:17:43;;;;;;;2.75;2.00;;;;;;;;;;5050843;28;20036;-64
2023/03/31 07:20:16;;;;;;;2.40;2.20;;;;;;;;;;5052993;28;20020;-64
2023/03/31 07:22:47;;;;;;;5.03;2.40;;;;;;;;;;5072477;28;20043;-63
2023/03/31 07:25:15;;;;;;;2.58;2.38;;;;;;;;;;5073049;28;20039;-64
2023/03/31 07:27:42;;;;;;;4.50;2.50;;;;;;;;;;5073379;28;20036;-64
2023/03/31 07:30:16;;;;;;;3.10;2.13;;;;;;;;;;5072997;28;20372;-67
2023/03/31 07:32:42;;;;;;;3.75;2.42;;;;;;;;;;5073136;28;20070;-65
2023/03/31 07:35:10;;;;;;;3.63;2.60;;;;;;;;;;5072858;28;20035;-65
2023/03/31 07:37:37;;;;;;;4.03;2.90;;;;;;;;;;5061606;28;20021;-65
2023/03/31 07:40:04;;;;;;;5.00;2.10;;;;;;;;;;5052367;28;20171;-64
2023/03/31 07:42:30;;;;;;;2.53;2.33;;;;;;;;;;5052882;28;20059;-64
2023/03/31 07:44:56;;;;;;;4.03;2.53;;;;;;;;;;5052653;28;20029;-63
2023/03/31 07:47:23;;;;;;;5.53;2.45;;;;;;;;;;5052978;28;20041;-63
2023/03/31 07:49:49;;;;;;;3.67;2.63;;;;;;;;;;5062440;28;20049;-64
2023/03/31 07:52:16;;;;;;;3.42;2.55;;;;;;;;;;5073008;28;20587;-64
2023/03/31 07:54:41;;;;;;;5.28;2.58;;;;;;;;;;5072505;28;20067;-64
2023/03/31 07:57:07;;;;;;;3.55;2.30;;;;;;;;;;5072461;28;20056;-64
2023/03/31 07:59:33;;;;;;;4.05;2.45;;;;;;;;;;5072509;28;20083;-64
2023/03/31 08:02:00;;;;;;;3.60;2.40;;;;;;;;;;5072193;28;20063;-63
2023/03/31 08:04:25;;;;;;;5.88;2.58;;;;;;;;;;5072360;28;20118;-64
2023/03/31 08:06:51;;;;;;;2.90;2.20;;;;;;;;;;5072269;28;20052;-68
2023/03/31 08:09:17;;;;;;;3.45;2.40;;;;;;;;;;5072204;28;20104;-68
2023/03/31 08:11:43;;;;;;;7.25;2.53;;;;;;;;;;5072146;28;20033;-66
2023/03/31 08:14:09;;;;;;;5.95;2.40;;;;;;;;;;5074256;28;20055;-64
2023/03/31 08:16:35;;;;;;;2.95;2.30;;;;;;;;;;5092638;28;20047;-63
2023/03/31 08:19:00;;;;;;;4.35;2.45;;;;;;;;;;5092099;28;20024;-63
2023/03/31 08:21:27;;;;;;;4.25;2.40;;;;;;;;;;5091251;28;20090;-63
2023/03/31 08:23:56;;;;;;;4.38;2.30;;;;;;;;;;5092198;28;20053;-65
2023/03/31 08:26:24;;;;;;;5.35;2.35;;;;;;;;;;5092235;28;20118;-65
2023/03/31 08:28:51;;;;;;;2.50;2.30;;;;;;;;;;5091855;28;20034;-67
2023/03/31 08:31:22;;;;;;;4.35;2.15;;;;;;;;;;5092100;28;20482;-65
2023/03/31 08:33:48;;;;;;;4.45;2.70;;;;;;;;;;5091958;28;20114;-64
2023/03/31 08:36:14;;;;;;;4.35;2.33;;;;;;;;;;5092035;28;20070;-67
2023/03/31 08:38:41;;;;;;;3.97;2.20;;;;;;;;;;5091798;28;20054;-66
2023/03/31 08:41:30;;;;;;;3.50;2.10;;;;;;;;;;5091826;28;20030;-66
2023/03/31 08:43:58;;;;;;;2.97;1.98;;;;;;;;;;5090921;28;20020;-67
2023/03/31 08:46:26;;;;;;;2.65;2.08;;;;;;;;;;5092075;28;20028;-65
2023/03/31 08:48:55;;;;;;;4.15;2.10;;;;;;;;;;5091491;28;20056;-69
2023/03/31 08:51:30;;;;;;;4.18;2.28;;;;;;;;;;5091793;28;20039;-65
2023/03/31 08:54:06;;;;;;;4.07;2.35;;;;;;;;;;5091983;28;20373;-66
2023/03/31 08:56:39;;;;;;;2.20;2.00;;;;;;;;;;5091600;28;20046;-65
2023/03/31 08:59:06;;;;;;;4.30;2.22;;;;;;;;;;5091458;28;20032;-66
2023/03/31 09:01:55;;;;;;;3.67;2.20;;;;;;;;;;5091568;28;20066;-66
2023/03/31 09:04:46;;;;;;;3.78;2.28;;;;;;;;;;5091585;28;20020;-69
2023/03/31 09:07:33;;;;;;;4.55;2.20;;;;;;;;;;5090229;28;20036;-67
2023/03/31 09:10:22;;;;;;;4.85;2.17;;;;;;;;;;5071333;28;20056;-70
2023/03/31 09:12:50;;;;;;;5.28;2.33;;;;;;;;;;5070888;28;20119;-65
2023/03/31 09:15:43;;;;;;;2.97;2.10;;;;;;;;;;5071126;28;20025;-68
2023/03/31 09:18:19;;;;;;;5.18;1.90;;;;;;;;;;5071029;28;20056;-65
2023/03/31 09:20:52;;;;;;;3.97;2.22;;;;;;;;;;5071185;28;20038;-66
2023/03/31 09:23:34;;;;;;;2.25;2.00;;;;;;;;;;5071117;28;20073;-67
2023/03/31 09:26:01;;;;;;;4.20;2.10;;;;;;;;;;5070930;28;20120;-66
2023/03/31 09:28:38;;;;;;;3.63;2.58;;;;;;;;;;5070889;28;20068;-65
2023/03/31 09:31:13;;;;;;;2.85;2.10;;;;;;;;;;5069479;28;20035;-68
2023/03/31 09:33:45;;;;;;;4.57;2.17;;;;;;;;;;5070600;28;20500;-66
2023/03/31 09:36:21;;;;;;;2.67;2.20;;;;;;;;;;5070926;28;20028;-66
2023/03/31 09:38:47;;;;;;;3.58;2.03;;;;;;;;;;5070495;28;20020;-63
2023/03/31 09:41:15;;;;;;;3.35;1.98;;;;;;;;;;5070868;28;20028;-66
2023/03/31 09:43:44;;;;;;;3.28;2.20;;;;;;;;;;5070714;28;20029;-66
2023/03/31 09:46:28;;;;;;;3.03;2.17;;;;;;;;;;5070734;28;20085;-65
2023/03/31 09:49:00;;;;;;;3.03;2.25;;;;;;;;;;5070431;28;20052;-66
2023/03/31 09:51:29;;;;;;;3.72;2.25;;;;;;;;;;5070686;28;20039;-66
2023/03/31 09:54:09;;;;;;;3.10;2.27;;;;;;;;;;5070631;28;20044;-66
2023/03/31 09:56:41;;;;;;;2.85;1.90;;;;;;;;;;5070927;28;20047;-66
2023/03/31 09:59:18;;;;;;;2.95;1.80;;;;;;;;;;5070572;28;20027;-65
2023/03/31 10:01:48;;;;;;;2.45;2.10;;;;;;;;;;5070438;28;20036;-66
2023/03/31 10:04:23;;;;;;;2.65;2.03;;;;;;;;;;5070664;28;20016;-66
2023/03/31 10:06:51;;;;;;;2.88;2.08;;;;;;;;;;5070466;28;20029;-66
2023/03/31 10:09:20;;;;;;;4.20;2.30;;;;;;;;;;5070313;28;20032;-68
2023/03/31 10:11:55;;;;;;;2.40;2.00;;;;;;;;;;5070168;28;20520;-68
2023/03/31 10:14:45;;;;;;;3.28;2.30;;;;;;;;;;5070540;28;20050;-66
2023/03/31 10:17:19;;;;;;;3.42;1.90;;;;;;;;;;5070101;28;20064;-66
2023/03/31 10:19:57;;;;;;;2.22;2.03;;;;;;;;;;5070296;28;20051;-69
2023/03/31 10:22:31;;;;;;;5.18;1.98;;;;;;;;;;5070409;28;20044;-66
2023/03/31 10:25:21;;;;;;;2.92;2.05;;;;;;;;;;5070339;28;20516;-69
2023/03/31 10:27:52;;;;;;;3.53;1.98;;;;;;;;;;5070319;28;20440;-67
2023/03/31 10:30:28;;;;;;;2.30;2.10;;;;;;;;;;5070516;28;20036;-68
2023/03/31 10:32:54;;;;;;;2.17;1.98;;;;;;;;;;5070376;28;20029;-67
2023/03/31 10:35:34;;;;;;;4.05;2.17;;;;;;;;;;5070254;28;20074;-68
2023/03/31 10:38:11;;;;;;;3.90;2.10;;;;;;;;;;5070146;28;20140;-64
2023/03/31 10:40:39;;;;;;;1.95;1.75;;;;;;;;;;5070178;28;20032;-66
2023/03/31 10:43:17;;;;;;;2.63;2.05;;;;;;;;;;5070231;28;20107;-65
2023/03/31 10:45:48;;;;;;;3.92;2.15;;;;;;;;;;5072092;28;20163;-63
2023/03/31 10:48:24;;;;;;;2.92;2.03;;;;;;;;;;5072175;28;20071;-64
2023/03/31 10:50:50;;;;;;;7.30;2.20;;;;;;;;;;5072321;28;20182;-66
2023/03/31 10:53:17;;;;;;;5.30;2.08;;;;;;;;;;5073144;28;20119;-64
2023/03/31 10:55:45;;;;;;;4.13;2.15;;;;;;;;;;5072351;28;20098;-64
2023/03/31 10:58:27;;;;;;;4.68;2.40;;;;;;;;;;5072429;28;20043;-64
2023/03/31 11:01:17;;;;;;;2.60;2.13;;;;;;;;;;5073390;28;20406;-64
2023/03/31 11:03:53;;;;;;;4.90;2.15;;;;;;;;;;5073607;28;20112;-64
2023/03/31 11:06:46;;;;;;;12.65;3.28;;;;;;;;;;5073846;28;20036;-62
2023/03/31 11:10:00;;;;;;;6.70;2.40;;;;;;;;;;5073340;28;20032;-67
2023/03/31 11:12:53;;;;;;;10.18;2.53;;;;;;;;;;5055637;28;20058;-63
2023/03/31 11:15:29;;;;;;;7.22;2.30;;;;;;;;;;5073399;28;20473;-63
2023/03/31 11:18:13;;;;;;;7.68;2.50;;;;;;;;;;5072002;28;20115;-63
2023/03/31 11:20:47;;;;;;;3.15;2.10;;;;;;;;;;5073165;28;20032;-62
2023/03/31 11:24:04;;;;;;;4.10;2.30;;;;;;;;;;5073136;28;20097;-63
2023/03/31 11:26:40;;;;;;;5.82;2.22;;;;;;;;;;5016931;28;20111;-66
2023/03/31 11:29:15;;;;;;;9.52;2.88;;;;;;;;;;5073078;28;20036;-62
2023/03/31 11:31:44;;;;;;;11.05;2.90;;;;;;;;;;5073061;28;20032;-63
2023/03/31 11:34:09;;;;;;;8.45;2.40;;;;;;;;;;5071604;28;20028;-63
2023/03/31 11:37:04;;;;;;;8.32;2.55;;;;;;;;;;5072931;28;20120;-66
2023/03/31 11:40:06;;;;;;;9.00;2.28;;;;;;;;;;5072835;28;20025;-67
2023/03/31 11:42:56;;;;;;;7.78;2.40;;;;;;;;;;5077268;28;20032;-63
2023/03/31 11:45:29;;;;;;;5.57;2.38;;;;;;;;;;5072232;28;20060;-61
2023/03/31 11:48:02;;;;;;;6.22;2.15;;;;;;;;;;5072728;28;20137;-63
2023/03/31 11:50:33;;;;;;;9.90;2.17;;;;;;;;;;5071944;28;20063;-64
2023/03/31 11:53:06;;;;;;;5.20;2.10;;;;;;;;;;5070992;28;20051;-64
2023/03/31 11:55:34;;;;;;;5.15;2.33;;;;;;;;;;5071068;28;20493;-65
2023/03/31 11:58:09;;;;;;;4.75;2.30;;;;;;;;;;5072486;28;20024;-65
2023/03/31 12:00:43;;;;;;;6.43;2.22;;;;;;;;;;5072635;28;20404;-65
2023/03/31 12:03:47;;;;;;;6.22;2.05;;;;;;;;;;5071745;28;20040;-65
2023/03/31 12:06:18;;;;;;;4.55;2.17;;;;;;;;;;4990183;28;20037;-63
2023/03/31 12:09:07;;;;;;;4.90;2.00;;;;;;;;;;5059756;28;20041;-64
2023/03/31 12:12:15;;;;;;;2.67;1.98;;;;;;;;;;5071486;28;20028;-63
2023/03/31 12:15:04;;;;;;;5.25;2.00;;;;;;;;;;5072207;28;20115;-63
2023/03/31 12:17:31;;;;;;;3.40;2.13;;;;;;;;;;5072085;28;20514;-65
2023/03/31 12:20:12;;;;;;;4.32;2.10;;;;;;;;;;5072298;28;20035;-64
2023/03/31 12:22:43;;;;;;;3.42;2.00;;;;;;;;;;5072230;28;20051;-64
2023/03/31 12:25:25;;;;;;;3.60;2.17;;;;;;;;;;5071925;28;20043;-64
2023/03/31 12:27:53;;;;;;;4.47;2.10;;;;;;;;;;5071906;28;20426;-64
2023/03/31 12:30:28;;;;;;;4.63;1.77;;;;;;;;;;5071653;28;20392;-64
2023/03/31 12:33:45;;;;;;;5.75;1.80;;;;;;;;;;5071844;28;20484;-66
2023/03/31 12:36:39;;;;;;;5.15;2.00;;;;;;;;;;5038438;28;20476;-64
2023/03/31 12:39:05;;;;;;;8.95;2.22;;;;;;;;;;5071860;28;20032;-65
2023/03/31 12:42:04;;;;;;;4.03;1.95;;;;;;;;;;5071422;28;20594;-63
2023/03/31 12:44:56;;;;;;;3.60;2.15;;;;;;;;;;5070138;28;20498;-64
2023/03/31 12:47:33;;;;;;;1.67;1.50;;;;;;;;;;5072033;28;20458;-65
2023/03/31 12:50:29;;;;;;;8.73;1.70;;;;;;;;;;5071123;28;20510;-64
2023/03/31 12:53:22;;;;;;;2.97;1.60;;;;;;;;;;5071404;28;20040;-64
2023/03/31 12:55:54;;;;;;;4.47;1.98;;;;;;;;;;5033955;28;20048;-65
2023/03/31 12:58:30;;;;;;;2.88;1.83;;;;;;;;;;5071385;28;20154;-64
2023/03/31 13:01:20;;;;;;;5.68;1.63;;;;;;;;;;5071142;28;20027;-64
2023/03/31 13:03:46;;;;;;;;;;;;;;;;;;5071626;28;20052;-64
2023/03/31 13:06:31;;;;;;;6.55;1.85;;;;;;;;;;5071272;28;19963;-64
2023/03/31 13:09:03;;;;;;;4.22;1.52;;;;;;;;;;5070553;28;20037;-63
2023/03/31 13:11:35;;;;;;;5.18;2.45;;;;;;;;;;5070949;28;20629;-63
2023/03/31 13:14:26;;;;;;;2.78;1.80;;;;;;;;;;5071122;28;20468;-64
2023/03/31 13:17:10;;;;;;;2.92;1.73;;;;;;;;;;5071033;28;20024;-63
2023/03/31 13:19:36;;;;;;;4.00;1.80;;;;;;;;;;5071078;28;20033;-62
2023/03/31 13:22:04;;;;;;;6.57;1.75;;;;;;;;;;5070709;28;20081;-64
2023/03/31 13:24:31;;;;;;;1.73;1.63;;;;;;;;;;5070935;28;20024;-64
2023/03/31 13:26:59;;;;;;;2.67;1.70;;;;;;;;;;5070899;28;20035;-63
2023/03/31 13:29:43;;;;;;;3.40;1.73;;;;;;;;;;5071156;28;20032;-63
2023/03/31 13:32:11;;;;;;;4.15;1.80;;;;;;;;;;5070825;28;20021;-63
2023/03/31 13:34:46;;;;;;;4.00;1.90;;;;;;;;;;5070863;28;20098;-63
2023/03/31 13:37:19;;;;;;;3.05;1.55;;;;;;;;;;5071055;28;20434;-64
2023/03/31 13:39:57;;;;;;;3.03;1.80;;;;;;;;;;5070746;28;20020;-63
2023/03/31 13:42:50;;;;;;;3.05;1.92;;;;;;;;;;5070494;28;20037;-64
2023/03/31 13:45:25;;;;;;;4.18;1.88;;;;;;;;;;5070735;28;20106;-64
2023/03/31 13:47:56;;;;;;;2.45;1.83;;;;;;;;;;5070595;28;20111;-64
2023/03/31 13:50:50;;;;;;;3.33;2.17;;;;;;;;;;5070270;28;20040;-64
2023/03/31 13:53:53;;;;;;;2.03;1.50;;;;;;;;;;5070613;28;20045;-64
2023/03/31 13:56:54;;;;;;;3.63;1.90;;;;;;;;;;5070600;28;20035;-64
2023/03/31 13:59:48;;;;;;;5.03;1.80;;;;;;;;;;5070662;28;20166;-65
2023/03/31 14:02:35;;;;;;;3.55;1.90;;;;;;;;;;5056129;28;20099;-66
2023/03/31 14:05:22;;;;;;;2.17;1.67;;;;;;;;;;5069388;28;20017;-67
2023/03/31 14:08:04;;;;;;;5.03;1.70;;;;;;;;;;5070793;28;20456;-64
2023/03/31 14:10:33;;;;;;;9.10;2.00;;;;;;;;;;5070670;28;20036;-63
2023/03/31 14:13:09;;;;;;;6.95;1.70;;;;;;;;;;5070804;28;20032;-63
2023/03/31 14:15:49;;;;;;;3.42;1.92;;;;;;;;;;5069171;28;20230;-63
2023/03/31 14:18:27;;;;;;;3.58;1.65;;;;;;;;;;5070532;28;20036;-63
2023/03/31 14:21:23;;;;;;;2.20;1.52;;;;;;;;;;5072687;28;20496;-63
2023/03/31 14:24:07;;;;;;;3.85;1.70;;;;;;;;;;5074460;28;20473;-63
2023/03/31 14:26:59;;;;;;;4.90;1.92;;;;;;;;;;5074192;28;20056;-63
2023/03/31 14:29:44;;;;;;;2.40;1.63;;;;;;;;;;5074295;28;20033;-63
2023/03/31 14:32:30;;;;;;;2.47;1.60;;;;;;;;;;5073998;28;20031;-64
2023/03/31 14:35:43;;;;;;;5.00;1.70;;;;;;;;;;5074199;28;20480;-63
2023/03/31 14:38:15;;;;;;;3.80;1.60;;;;;;;;;;4994657;28;20071;-64
2023/03/31 14:40:52;;;;;;;5.07;1.60;;;;;;;;;;5068283;28;20434;-63
2023/03/31 14:43:20;;;;;;;5.13;1.75;;;;;;;;;;5080517;28;20029;-63
2023/03/31 14:45:46;;;;;;;5.93;1.88;;;;;;;;;;5065384;28;20056;-63
2023/03/31 14:48:15;;;;;;;4.80;2.10;;;;;;;;;;5074528;28;20506;-64
2023/03/31 14:50:47;;;;;;;3.40;1.83;;;;;;;;;;5083244;28;20057;-63
2023/03/31 14:53:15;;;;;;;1.85;1.63;;;;;;;;;;5090942;28;20483;-64
2023/03/31 14:55:42;;;;;;;3.50;1.90;;;;;;;;;;5093913;28;20024;-63
2023/03/31 14:58:16;;;;;;;2.80;1.88;;;;;;;;;;5093734;28;20558;-63
2023/03/31 15:00:41;;;;;;;6.60;1.70;;;;;;;;;;5093946;28;20444;-63
2023/03/31 15:03:13;;;;;;;2.67;1.58;;;;;;;;;;5093720;28;20063;-64
2023/03/31 15:05:42;;;;;;;4.43;1.80;;;;;;;;;;5094074;28;20028;-63
2023/03/31 15:08:20;;;;;;;5.45;2.20;;;;;;;;;;5093724;28;20023;-64
2023/03/31 15:10:52;;;;;;;4.45;1.52;;;;;;;;;;5093430;28;20081;-64
2023/03/31 15:13:24;;;;;;;2.92;1.70;;;;;;;;;;5086258;28;20506;-63
2023/03/31 15:15:50;;;;;;;4.85;1.50;;;;;;;;;;5093587;28;20372;-64
2023/03/31 15:18:16;;;;;;;3.08;1.98;;;;;;;;;;5077838;28;20090;-64
2023/03/31 15:20:43;;;;;;;4.60;1.90;;;;;;;;;;5072954;28;20060;-64